Time;durP1;ratioP1;P1;durP2;ratioP2;P2;SDS_P1;SDS_P2;PMS_P1;PMS_P2;Temp;Humidity;BMP_temperature;BMP_pressure;BME280_temperature;BME280_humidity;BME280_pressure;Samples;Min_cycle;Max_cycle;Signal;HPM_P1;HPM_P2
2022/06/09 00:01:39;;;;;;;1.77;0.80;;;14.90;99.90;;;;;;4924407;28;21210;-88
2022/06/09 00:04:14;;;;;;;1.10;0.80;;;14.90;99.90;;;;;;4923045;28;20477;-89
2022/06/09 00:06:51;;;;;;;1.13;0.97;;;14.90;99.90;;;;;;4935309;28;20441;-88
2022/06/09 00:09:20;;;;;;;0.60;0.60;;;15.00;99.90;;;;;;4926613;28;20485;-88
2022/06/09 00:11:48;;;;;;;1.00;0.70;;;15.00;99.90;;;;;;4921113;28;20450;-89
2022/06/09 00:14:15;;;;;;;0.90;0.90;;;15.00;99.90;;;;;;4921875;28;20481;-89
2022/06/09 00:16:41;;;;;;;1.53;0.90;;;15.10;99.90;;;;;;4921376;28;20473;-89
2022/06/09 00:19:07;;;;;;;0.87;0.87;;;15.10;99.90;;;;;;4921717;28;20483;-89
2022/06/09 00:21:34;;;;;;;1.20;1.10;;;15.10;99.90;;;;;;4919840;28;20481;-89
2022/06/09 00:23:59;;;;;;;1.37;0.90;;;15.10;99.90;;;;;;4921595;28;22230;-88
2022/06/09 00:26:25;;;;;;;2.07;1.00;;;15.10;99.90;;;;;;4924241;28;20541;-88
2022/06/09 00:28:51;;;;;;;1.00;0.90;;;15.10;99.90;;;;;;4934154;28;20669;-88
2022/06/09 00:31:17;;;;;;;0.70;0.70;;;15.20;99.90;;;;;;4930574;28;20538;-87
2022/06/09 00:33:43;;;;;;;0.73;0.73;;;15.20;99.90;;;;;;4920559;28;20196;-88
2022/06/09 00:36:08;;;;;;;0.90;0.80;;;15.10;99.90;;;;;;4926123;28;20446;-88
2022/06/09 00:38:34;;;;;;;1.10;1.00;;;15.10;99.90;;;;;;4923766;28;20199;-88
2022/06/09 00:41:02;;;;;;;1.30;0.80;;;15.00;99.90;;;;;;4924979;28;20223;-88
2022/06/09 00:43:28;;;;;;;1.83;0.90;;;15.10;99.90;;;;;;4919555;28;20637;-88
2022/06/09 00:46:15;;;;;;;2.27;1.00;;;15.10;99.90;;;;;;4931140;28;20446;-88
2022/06/09 00:48:52;;;;;;;1.23;0.80;;;15.00;99.90;;;;;;4926478;28;20666;-87
2022/06/09 00:51:34;;;;;;;0.90;0.80;;;15.00;99.90;;;;;;4925367;28;20523;-87
2022/06/09 00:54:30;;;;;;;0.90;0.90;;;15.00;99.90;;;;;;4921380;28;20557;-87
2022/06/09 00:57:11;;;;;;;2.23;0.73;;;15.00;99.90;;;;;;4922030;28;20450;-87
2022/06/09 00:59:39;;;;;;;0.80;0.80;;;14.90;99.90;;;;;;4928342;28;21105;-87
2022/06/09 01:02:08;;;;;;;1.10;0.67;;;14.90;99.90;;;;;;4932978;28;20498;-88
2022/06/09 01:04:34;;;;;;;1.00;0.90;;;14.80;99.90;;;;;;4920618;28;20901;-88
2022/06/09 01:07:11;;;;;;;1.10;0.90;;;14.70;99.90;;;;;;4924832;28;20546;-87
2022/06/09 01:09:40;;;;;;;0.80;0.70;;;14.60;99.90;;;;;;4932642;28;21135;-87
2022/06/09 01:12:32;;;;;;;1.37;0.90;;;14.50;99.90;;;;;;4921498;28;20976;-87
2022/06/09 01:15:23;;;;;;;1.37;0.83;;;14.30;99.90;;;;;;4924782;28;20486;-88
2022/06/09 01:18:10;;;;;;;0.80;0.77;;;14.20;99.90;;;;;;4921286;28;20470;-88
2022/06/09 01:20:47;;;;;;;1.10;0.90;;;14.10;99.90;;;;;;4920263;28;20443;-87
2022/06/09 01:23:25;;;;;;;0.90;0.90;;;14.00;99.90;;;;;;4931342;28;20455;-88
2022/06/09 01:26:22;;;;;;;0.70;0.60;;;14.10;99.90;;;;;;4934847;28;21087;-88
2022/06/09 01:29:05;;;;;;;2.57;0.77;;;14.00;99.90;;;;;;4933507;28;20558;-88
2022/06/09 01:31:38;;;;;;;0.73;0.70;;;14.10;99.90;;;;;;4924708;28;20431;-88
2022/06/09 01:34:36;;;;;;;1.20;0.80;;;14.10;99.90;;;;;;4925300;28;20790;-88
2022/06/09 01:37:06;;;;;;;0.83;0.83;;;14.10;99.90;;;;;;4919120;28;20443;-88
2022/06/09 01:39:50;;;;;;;0.60;0.60;;;14.20;99.90;;;;;;4924851;28;20451;-88
2022/06/09 01:42:22;;;;;;;1.87;0.80;;;14.10;99.90;;;;;;4919097;28;20578;-88
2022/06/09 01:44:49;;;;;;;0.80;0.80;;;14.10;99.90;;;;;;4925153;28;21035;-88
2022/06/09 01:47:18;;;;;;;2.20;1.10;;;14.20;99.90;;;;;;4920980;28;20454;-88
2022/06/09 01:49:44;;;;;;;1.20;0.90;;;14.20;99.90;;;;;;4921145;28;21043;-87
2022/06/09 01:52:09;;;;;;;0.90;0.80;;;14.20;99.90;;;;;;4922828;28;20963;-88
2022/06/09 01:54:38;;;;;;;0.70;0.70;;;14.20;99.90;;;;;;4924932;28;20446;-88
2022/06/09 01:57:09;;;;;;;1.83;0.70;;;14.20;99.90;;;;;;4926458;28;20233;-86
2022/06/09 01:59:43;;;;;;;0.70;0.70;;;14.20;99.90;;;;;;4924814;28;20446;-87
2022/06/09 02:02:19;;;;;;;0.70;0.70;;;14.10;99.90;;;;;;4924380;28;20477;-87
2022/06/09 02:04:52;;;;;;;0.60;0.60;;;14.10;99.90;;;;;;4921135;28;20449;-87
2022/06/09 02:07:20;;;;;;;0.50;0.50;;;14.20;99.90;;;;;;4920699;28;20450;-87
2022/06/09 02:09:46;;;;;;;0.73;0.73;;;14.10;99.90;;;;;;4930954;28;20561;-87
2022/06/09 02:12:16;;;;;;;0.70;0.70;;;14.00;99.90;;;;;;4950381;28;20435;-87
2022/06/09 02:14:51;;;;;;;0.90;0.90;;;14.00;99.90;;;;;;4919863;28;20450;-86
2022/06/09 02:17:17;;;;;;;0.77;0.70;;;13.90;99.90;;;;;;4929819;28;20454;-87
2022/06/09 02:19:44;;;;;;;1.70;1.13;;;14.00;99.90;;;;;;4919505;28;20447;-86
2022/06/09 02:22:11;;;;;;;0.90;0.90;;;13.90;99.90;;;;;;4921865;28;20547;-86
2022/06/09 02:24:38;;;;;;;1.60;0.87;;;13.90;99.90;;;;;;4920690;28;20766;-86
2022/06/09 02:27:04;;;;;;;0.73;0.73;;;13.90;99.90;;;;;;4934196;28;20454;-87
2022/06/09 02:29:29;;;;;;;1.20;1.20;;;13.90;99.90;;;;;;4919024;28;21096;-87
2022/06/09 02:31:55;;;;;;;1.37;0.87;;;13.90;99.90;;;;;;4923845;28;20451;-87
2022/06/09 02:34:21;;;;;;;2.40;1.30;;;13.90;99.90;;;;;;4916169;28;20190;-86
2022/06/09 02:36:47;;;;;;;2.60;1.07;;;14.00;99.90;;;;;;4925892;28;20184;-86
2022/06/09 02:39:12;;;;;;;0.90;0.87;;;14.00;99.90;;;;;;4922073;28;20458;-87
2022/06/09 02:41:38;;;;;;;1.63;1.10;;;14.00;99.90;;;;;;4934364;28;20477;-87
2022/06/09 02:44:04;;;;;;;0.97;0.83;;;14.00;99.90;;;;;;4921302;28;20223;-87
2022/06/09 02:46:30;;;;;;;2.30;1.10;;;14.00;99.90;;;;;;4927636;28;20261;-87
2022/06/09 02:48:56;;;;;;;2.80;1.10;;;14.00;99.90;;;;;;4995054;28;20225;-87
2022/06/09 02:51:28;;;;;;;1.10;1.00;;;14.10;99.90;;;;;;4923829;28;20565;-86
2022/06/09 02:53:59;;;;;;;0.90;0.90;;;14.00;99.90;;;;;;4919922;28;20451;-87
2022/06/09 02:56:25;;;;;;;1.17;1.03;;;14.00;99.90;;;;;;4927742;28;20459;-87
2022/06/09 02:58:51;;;;;;;1.10;1.00;;;13.90;99.90;;;;;;4920703;28;20442;-87
2022/06/09 03:01:17;;;;;;;1.67;1.03;;;14.00;99.90;;;;;;4922104;28;20479;-87
2022/06/09 03:03:43;;;;;;;1.77;1.10;;;14.00;99.90;;;;;;5002660;28;20447;-87
2022/06/09 03:06:09;;;;;;;2.93;1.10;;;14.10;99.90;;;;;;4935434;28;20856;-88
2022/06/09 03:08:34;;;;;;;1.40;1.30;;;14.10;99.90;;;;;;4920490;28;20194;-87
2022/06/09 03:11:00;;;;;;;1.37;1.17;;;14.10;99.90;;;;;;4922829;28;20188;-87
2022/06/09 03:13:26;;;;;;;1.03;0.93;;;14.10;99.90;;;;;;4923736;28;20191;-87
2022/06/09 03:15:51;;;;;;;2.00;1.57;;;14.00;99.90;;;;;;4917722;28;20621;-87
2022/06/09 03:18:18;;;;;;;1.50;1.40;;;14.00;99.90;;;;;;4924197;28;20210;-87
2022/06/09 03:20:44;;;;;;;1.50;1.40;;;14.00;99.90;;;;;;4932053;28;20195;-87
2022/06/09 03:23:10;;;;;;;1.20;1.20;;;14.00;99.90;;;;;;4923061;28;20453;-87
2022/06/09 03:25:37;;;;;;;1.20;1.10;;;14.00;99.90;;;;;;4922042;28;20460;-88
2022/06/09 03:28:02;;;;;;;1.60;1.50;;;14.00;99.90;;;;;;4944763;28;20971;-88
2022/06/09 03:30:28;;;;;;;1.70;1.60;;;14.00;99.90;;;;;;4931485;28;20446;-87
2022/06/09 03:32:54;;;;;;;1.77;1.40;;;14.00;99.90;;;;;;4922507;28;20356;-88
2022/06/09 03:35:19;;;;;;;2.30;1.67;;;13.90;99.90;;;;;;4918872;28;20400;-88
2022/06/09 03:37:45;;;;;;;1.43;1.33;;;13.90;99.90;;;;;;4920948;28;20189;-87
2022/06/09 03:40:14;;;;;;;1.90;1.47;;;14.00;99.90;;;;;;4926402;28;20950;-87
2022/06/09 03:42:39;;;;;;;2.00;1.60;;;14.00;99.90;;;;;;4926103;28;20248;-87
2022/06/09 03:45:05;;;;;;;2.30;1.60;;;14.00;99.90;;;;;;4918714;28;20450;-88
2022/06/09 03:47:31;;;;;;;1.47;1.37;;;14.00;99.90;;;;;;4925495;28;20187;-87
2022/06/09 03:49:57;;;;;;;1.60;1.13;;;14.00;99.90;;;;;;4924721;28;20952;-86
2022/06/09 03:52:22;;;;;;;1.17;1.13;;;14.10;99.90;;;;;;4926064;28;20508;-87
2022/06/09 03:54:48;;;;;;;1.73;1.47;;;14.00;99.90;;;;;;4921038;28;20270;-88
2022/06/09 03:57:14;;;;;;;2.00;1.23;;;14.00;99.90;;;;;;4999721;28;20264;-87
2022/06/09 03:59:39;;;;;;;2.40;1.80;;;14.00;99.90;;;;;;4923639;28;20188;-88
2022/06/09 04:02:05;;;;;;;5.60;1.43;;;14.10;99.90;;;;;;4919242;28;20219;-88
2022/06/09 04:04:30;;;;;;;1.50;1.40;;;14.00;99.90;;;;;;4920815;28;23741;-87
2022/06/09 04:06:58;;;;;;;1.53;1.30;;;14.00;99.90;;;;;;4925732;28;20461;-88
2022/06/09 04:09:26;;;;;;;1.70;1.60;;;14.10;99.90;;;;;;4929207;28;20295;-88
2022/06/09 04:11:51;;;;;;;1.47;1.17;;;14.10;99.90;;;;;;4916629;28;20442;-88
2022/06/09 04:14:17;;;;;;;2.73;1.93;;;14.20;99.90;;;;;;4922313;28;20431;-88
2022/06/09 04:16:46;;;;;;;1.63;1.53;;;14.20;99.90;;;;;;4920165;28;20222;-88
2022/06/09 04:19:16;;;;;;;1.30;1.20;;;14.20;99.90;;;;;;4925028;28;20657;-87
2022/06/09 04:21:43;;;;;;;1.33;1.20;;;14.20;99.90;;;;;;4925217;28;20478;-87
2022/06/09 04:24:15;;;;;;;1.40;1.30;;;14.20;99.90;;;;;;4919310;28;20446;-88
2022/06/09 04:26:44;;;;;;;1.27;1.27;;;14.30;99.90;;;;;;4922748;28;20462;-89
2022/06/09 04:29:11;;;;;;;1.50;1.40;;;14.30;99.90;;;;;;4925237;28;21057;-88
2022/06/09 04:31:43;;;;;;;1.93;1.20;;;14.40;99.90;;;;;;4924531;28;20485;-88
2022/06/09 04:34:09;;;;;;;1.30;1.20;;;14.40;99.90;;;;;;4926254;28;20837;-87
2022/06/09 04:36:35;;;;;;;1.40;1.30;;;14.40;99.90;;;;;;4923391;28;20435;-88
2022/06/09 04:39:02;;;;;;;3.00;1.43;;;14.40;99.90;;;;;;4932908;28;21098;-87
2022/06/09 04:41:28;;;;;;;1.47;1.37;;;14.40;99.90;;;;;;4922227;28;20580;-88
2022/06/09 04:43:57;;;;;;;1.43;1.30;;;14.50;99.90;;;;;;4928840;28;20450;-88
2022/06/09 04:46:32;;;;;;;1.63;1.53;;;14.40;99.90;;;;;;4930142;28;20442;-87
2022/06/09 04:49:00;;;;;;;3.33;1.90;;;14.40;99.90;;;;;;4918973;28;20927;-88
2022/06/09 04:51:30;;;;;;;3.00;1.83;;;14.40;99.90;;;;;;4917668;28;20504;-88
2022/06/09 04:54:04;;;;;;;1.77;1.50;;;14.30;99.90;;;;;;4916412;28;20477;-88
2022/06/09 04:56:30;;;;;;;5.27;1.70;;;14.30;99.90;;;;;;4925301;28;20458;-89
2022/06/09 04:58:55;;;;;;;1.93;1.63;;;14.30;99.90;;;;;;4927980;28;20902;-89
2022/06/09 05:01:25;;;;;;;2.67;1.77;;;14.30;99.90;;;;;;4930408;28;20238;-89
2022/06/09 05:03:54;;;;;;;2.20;2.00;;;14.20;99.90;;;;;;4929379;28;20191;-89
2022/06/09 05:06:24;;;;;;;1.60;1.50;;;14.10;99.90;;;;;;4929935;28;20451;-88
2022/06/09 05:08:52;;;;;;;2.83;1.77;;;14.10;99.90;;;;;;4931411;28;20491;-88
2022/06/09 05:11:17;;;;;;;3.23;2.07;;;14.10;99.90;;;;;;4915731;28;20872;-89
2022/06/09 05:13:43;;;;;;;3.27;1.90;;;14.10;99.90;;;;;;4920839;28;20446;-86
2022/06/09 05:16:23;;;;;;;2.27;2.03;;;14.10;99.90;;;;;;4941693;28;20301;-87
2022/06/09 05:18:52;;;;;;;3.23;1.90;;;14.10;99.90;;;;;;4924346;28;20198;-87
2022/06/09 05:21:25;;;;;;;2.60;1.63;;;14.10;99.90;;;;;;4919106;28;20985;-88
2022/06/09 05:23:50;;;;;;;2.13;1.93;;;14.10;99.90;;;;;;4930863;28;20439;-87
2022/06/09 05:26:16;;;;;;;2.10;1.90;;;14.20;99.90;;;;;;4919834;28;20461;-87
2022/06/09 05:28:42;;;;;;;2.10;1.90;;;14.10;99.90;;;;;;4919502;28;20310;-87
2022/06/09 05:31:07;;;;;;;2.53;1.83;;;14.00;99.90;;;;;;4916558;28;20187;-87
2022/06/09 05:33:33;;;;;;;4.50;2.10;;;13.90;99.90;;;;;;4916423;28;20444;-87
2022/06/09 05:36:00;;;;;;;3.30;1.70;;;13.90;99.90;;;;;;4925201;28;20192;-88
2022/06/09 05:46:44;;;;;;;3.90;1.97;;;14.00;99.90;;;;;;4919969;28;20451;-88
2022/06/09 05:49:10;;;;;;;2.67;2.00;;;14.20;99.90;;;;;;4914112;28;20942;-88
2022/06/09 05:51:38;;;;;;;3.53;2.23;;;14.40;99.90;;;;;;4919455;28;20449;-87
2022/06/09 05:54:04;;;;;;;3.60;2.20;;;14.60;99.90;;;;;;4921165;28;20229;-87
2022/06/09 05:56:30;;;;;;;2.97;2.20;;;14.70;99.90;;;;;;4918607;28;20443;-87
2022/06/09 05:58:56;;;;;;;3.23;2.00;;;14.80;99.90;;;;;;4922005;28;20494;-86
2022/06/09 06:01:21;;;;;;;1.97;1.77;;;14.90;99.90;;;;;;4921272;28;20674;-87
2022/06/09 06:03:47;;;;;;;1.80;1.70;;;15.10;99.90;;;;;;4921059;28;20199;-87
2022/06/09 06:08:56;;;;;;;1.93;1.63;;;15.30;99.90;;;;;;4922926;28;20236;-88
2022/06/09 06:11:23;;;;;;;4.27;2.00;;;15.40;99.90;;;;;;4917160;28;20620;-87
2022/06/09 06:13:49;;;;;;;1.90;1.70;;;15.40;99.90;;;;;;4933085;28;20315;-87
2022/06/09 06:16:15;;;;;;;1.63;1.53;;;15.50;99.90;;;;;;4921070;28;20449;-88
2022/06/09 06:18:40;;;;;;;2.80;1.60;;;15.40;99.90;;;;;;4925977;28;21697;-88
2022/06/09 06:21:06;;;;;;;4.27;1.80;;;15.30;99.90;;;;;;4925091;28;20470;-87
2022/06/09 06:23:32;;;;;;;2.63;1.77;;;15.30;99.90;;;;;;4917430;28;20359;-87
2022/06/09 06:25:58;;;;;;;2.50;1.50;;;15.20;99.90;;;;;;4922306;28;20187;-88
2022/06/09 06:28:27;;;;;;;1.73;1.63;;;15.30;99.90;;;;;;4919113;28;20203;-88
2022/06/09 06:30:53;;;;;;;4.50;1.70;;;15.40;99.90;;;;;;4932924;28;20508;-88
2022/06/09 06:33:19;;;;;;;3.17;1.30;;;15.70;99.90;;;;;;4929979;28;20447;-88
2022/06/09 06:35:45;;;;;;;4.30;1.40;;;15.70;99.90;;;;;;4906740;28;20188;-89
2022/06/09 06:38:10;;;;;;;6.10;2.17;;;15.60;99.90;;;;;;4920169;28;20649;-87
2022/06/09 06:40:36;;;;;;;2.23;1.47;;;15.60;99.90;;;;;;4932737;28;20199;-87
2022/06/09 06:43:02;;;;;;;2.50;1.60;;;15.30;99.90;;;;;;4913771;28;20258;-87
2022/06/09 06:45:28;;;;;;;2.23;1.70;;;15.40;99.90;;;;;;4919537;28;20212;-88
2022/06/09 06:47:54;;;;;;;3.60;1.70;;;15.50;99.90;;;;;;4905246;28;21189;-88
2022/06/09 06:50:19;;;;;;;2.50;1.57;;;15.60;99.90;;;;;;4910199;28;20328;-88
2022/06/09 06:52:48;;;;;;;3.40;1.83;;;15.70;99.90;;;;;;4920521;28;20439;-86
2022/06/09 06:55:20;;;;;;;2.93;1.47;;;15.80;99.90;;;;;;4916276;28;20245;-86
2022/06/09 06:57:46;;;;;;;2.60;1.50;;;15.90;99.90;;;;;;4926802;28;20489;-87
2022/06/09 07:00:15;;;;;;;3.33;1.77;;;15.60;99.90;;;;;;4918130;28;20581;-85
2022/06/09 07:02:43;;;;;;;2.37;1.60;;;15.60;99.90;;;;;;4928267;28;20687;-87
2022/06/09 07:05:09;;;;;;;5.77;1.77;;;16.00;99.90;;;;;;4940535;28;20435;-87
2022/06/09 07:07:36;;;;;;;1.93;1.63;;;15.70;99.90;;;;;;5007615;28;20527;-88
2022/06/09 07:10:03;;;;;;;3.97;1.77;;;15.60;99.90;;;;;;4919387;28;20477;-87
2022/06/09 07:12:29;;;;;;;2.43;1.40;;;15.70;99.90;;;;;;4936717;28;20438;-86
2022/06/09 07:14:55;;;;;;;2.10;1.27;;;16.00;99.90;;;;;;4931736;28;20447;-87
2022/06/09 07:17:20;;;;;;;1.83;1.50;;;16.20;99.90;;;;;;4916134;28;20800;-86
2022/06/09 07:19:53;;;;;;;2.13;1.60;;;16.00;99.90;;;;;;4927325;28;20182;-87
2022/06/09 07:22:19;;;;;;;5.30;1.57;;;15.90;99.90;;;;;;4925189;28;20268;-86
2022/06/09 07:24:46;;;;;;;2.57;1.40;;;16.10;99.90;;;;;;4923474;28;20438;-87
2022/06/09 07:27:12;;;;;;;2.73;1.50;;;16.10;99.90;;;;;;4941359;28;20454;-87
2022/06/09 07:29:38;;;;;;;4.60;2.00;;;16.30;99.90;;;;;;4925010;28;20458;-87
2022/06/09 07:32:05;;;;;;;3.60;1.47;;;16.30;99.90;;;;;;4917529;28;20478;-87
2022/06/09 07:34:30;;;;;;;3.23;1.70;;;16.30;99.90;;;;;;4935104;28;20451;-87
2022/06/09 07:36:56;;;;;;;3.57;1.53;;;16.10;99.90;;;;;;4953047;28;20882;-86
2022/06/09 07:39:22;;;;;;;5.03;1.80;;;15.70;99.90;;;;;;4949336;28;22790;-86
2022/06/09 07:41:47;;;;;;;5.87;1.40;;;15.50;99.90;;;;;;4943036;28;20218;-85
2022/06/09 07:44:15;;;;;;;4.80;1.70;;;15.60;99.90;;;;;;4935044;28;20298;-86
2022/06/09 07:46:46;;;;;;;4.77;1.53;;;15.60;99.90;;;;;;4942751;28;20190;-84
2022/06/09 07:49:18;;;;;;;2.93;1.50;;;15.80;99.90;;;;;;4940398;28;20437;-85
2022/06/09 07:51:43;;;;;;;2.30;1.43;;;16.10;99.90;;;;;;4946153;28;20450;-86
2022/06/09 07:54:09;;;;;;;2.73;1.50;;;16.10;99.90;;;;;;4946681;28;21399;-86
2022/06/09 07:56:35;;;;;;;5.03;1.30;;;16.10;99.90;;;;;;4947273;28;20191;-86
2022/06/09 07:59:03;;;;;;;3.27;1.33;;;16.10;99.90;;;;;;4949049;28;20454;-86
2022/06/09 08:01:29;;;;;;;3.63;1.30;;;15.90;99.90;;;;;;4942907;28;20293;-86
2022/06/09 08:03:55;;;;;;;3.40;1.30;;;16.10;99.90;;;;;;4962119;28;20452;-86
2022/06/09 08:06:24;;;;;;;5.53;1.50;;;16.50;99.90;;;;;;4956495;28;20178;-86
2022/06/09 08:08:51;;;;;;;1.40;1.20;;;16.80;99.90;;;;;;4944703;28;20441;-85
2022/06/09 08:11:17;;;;;;;2.60;1.27;;;16.60;99.90;;;;;;4943875;28;20449;-86
2022/06/09 08:13:44;;;;;;;3.37;1.50;;;16.80;99.90;;;;;;4944291;28;20442;-84
2022/06/09 08:16:09;;;;;;;3.00;1.40;;;16.80;99.90;;;;;;4949884;28;20445;-86
2022/06/09 08:18:35;;;;;;;3.53;1.17;;;16.80;99.90;;;;;;4940041;28;20441;-87
2022/06/09 08:21:01;;;;;;;2.70;1.40;;;16.50;99.90;;;;;;4949028;28;20213;-87
2022/06/09 08:23:28;;;;;;;2.93;1.27;;;16.70;99.90;;;;;;4940876;28;20210;-89
2022/06/09 08:25:58;;;;;;;4.70;1.30;;;16.90;99.90;;;;;;4954576;28;20540;-85
2022/06/09 08:28:26;;;;;;;2.47;1.37;;;17.20;99.90;;;;;;4946146;28;20554;-85
2022/06/09 08:30:55;;;;;;;3.33;1.30;;;17.20;99.90;;;;;;5031483;28;21036;-86
2022/06/09 08:33:22;;;;;;;2.47;1.53;;;17.10;99.90;;;;;;4947714;28;20473;-87
2022/06/09 08:35:49;;;;;;;3.27;1.00;;;16.90;99.90;;;;;;4945852;28;20951;-86
2022/06/09 08:38:15;;;;;;;4.70;1.40;;;17.10;99.90;;;;;;4946694;28;20432;-86
2022/06/09 08:40:56;;;;;;;3.37;1.20;;;17.40;99.90;;;;;;4940031;28;21304;-83
2022/06/09 08:43:39;;;;;;;2.33;1.00;;;17.50;99.90;;;;;;4959656;28;20237;-82
2022/06/09 08:46:24;;;;;;;2.57;1.13;;;17.30;99.90;;;;;;5029535;28;20534;-83
2022/06/09 08:48:54;;;;;;;2.47;1.50;;;17.20;99.90;;;;;;4942025;28;20471;-83
2022/06/09 08:51:40;;;;;;;3.67;1.20;;;17.20;99.90;;;;;;4963281;28;21889;-83
2022/06/09 08:54:15;;;;;;;6.30;1.27;;;17.00;99.90;;;;;;4957127;28;21108;-83
2022/06/09 08:56:41;;;;;;;2.30;1.10;;;17.30;99.90;;;;;;4941899;28;20450;-85
2022/06/09 08:59:16;;;;;;;2.00;1.10;;;17.40;99.90;;;;;;4963627;28;20455;-84
2022/06/09 09:01:48;;;;;;;2.40;1.10;;;17.70;99.90;;;;;;4937868;28;20493;-83
2022/06/09 09:04:25;;;;;;;2.80;1.97;;;17.80;99.90;;;;;;4953962;28;20464;-83
2022/06/09 09:07:12;;;;;;;1.27;0.83;;;17.90;99.90;;;;;;4954406;28;20449;-83
2022/06/09 09:09:39;;;;;;;2.50;0.97;;;18.20;99.90;;;;;;4949960;28;20490;-83
2022/06/09 09:12:40;;;;;;;2.43;0.97;;;18.20;99.80;;;;;;4933423;28;21343;-83
2022/06/09 09:15:29;;;;;;;2.33;1.03;;;18.10;99.90;;;;;;5034460;28;20457;-84
2022/06/09 09:18:13;;;;;;;1.27;0.90;;;18.40;99.30;;;;;;4954634;28;20441;-84
2022/06/09 09:20:51;;;;;;;2.20;1.10;;;17.80;99.20;;;;;;4960615;28;20797;-83
2022/06/09 09:23:28;;;;;;;2.60;1.10;;;17.40;99.90;;;;;;4936796;28;20489;-82
2022/06/09 09:26:00;;;;;;;4.13;1.47;;;17.50;99.90;;;;;;4952106;28;20512;-84
2022/06/09 09:28:32;;;;;;;1.80;1.03;;;17.70;99.90;;;;;;4943947;28;20651;-83
2022/06/09 09:31:20;;;;;;;2.47;1.20;;;17.60;99.80;;;;;;4947172;28;20511;-85
2022/06/09 09:33:46;;;;;;;2.17;1.00;;;17.40;99.90;;;;;;4947833;28;20435;-87
2022/06/09 09:36:29;;;;;;;2.97;1.27;;;17.30;99.90;;;;;;4938115;28;20601;-86
2022/06/09 09:39:30;;;;;;;2.60;0.90;;;17.30;99.90;;;;;;4949506;28;20656;-85
2022/06/09 09:42:16;;;;;;;1.47;1.07;;;18.00;99.90;;;;;;4963460;28;20481;-86
2022/06/09 09:45:19;;;;;;;1.67;1.07;;;18.80;99.40;;;;;;4945861;28;20503;-86
2022/06/09 09:47:45;;;;;;;1.17;0.70;;;18.70;99.10;;;;;;4947808;28;20476;-86
2022/06/09 09:50:26;;;;;;;0.93;0.80;;;18.30;98.30;;;;;;4939148;28;20466;-87
2022/06/09 09:53:01;;;;;;;6.53;1.10;;;18.30;99.40;;;;;;4949363;28;20186;-87
2022/06/09 09:55:38;;;;;;;4.10;0.87;;;18.30;98.70;;;;;;4944879;28;20448;-86
2022/06/09 09:58:13;;;;;;;2.23;1.03;;;18.40;97.60;;;;;;4960075;28;20490;-87
2022/06/09 10:00:39;;;;;;;2.10;0.97;;;18.30;98.70;;;;;;4949443;28;20443;-88
2022/06/09 10:09:24;;;;;;;2.57;0.87;;;19.90;97.20;;;;;;4943529;28;20452;-87
2022/06/09 10:11:55;;;;;;;12.73;5.20;;;19.90;96.10;;;;;;4948538;28;20445;-89
2022/06/09 10:14:48;;;;;;;1.87;1.10;;;20.10;98.20;;;;;;4936867;28;20538;-87
2022/06/09 10:17:23;;;;;;;2.40;0.90;;;20.50;94.70;;;;;;4959081;28;20979;-87
2022/06/09 10:19:53;;;;;;;1.07;0.97;;;20.20;94.70;;;;;;4954827;28;20440;-86
2022/06/09 10:22:22;;;;;;;1.30;0.90;;;19.80;95.40;;;;;;4946632;28;20462;-84
2022/06/09 10:24:54;;;;;;;1.40;1.20;;;19.10;95.30;;;;;;4945430;28;20464;-85
2022/06/09 10:27:26;;;;;;;2.50;1.10;;;18.70;95.90;;;;;;4937418;28;20452;-83
2022/06/09 10:30:08;;;;;;;2.63;0.90;;;18.80;96.90;;;;;;4946402;28;20535;-85
2022/06/09 10:32:45;;;;;;;1.60;0.90;;;19.10;96.80;;;;;;4942116;28;20457;-85
2022/06/09 10:35:32;;;;;;;1.10;1.00;;;18.70;96.00;;;;;;4934963;28;20480;-86
2022/06/09 10:38:07;;;;;;;3.67;0.90;;;18.60;96.50;;;;;;4948305;28;20445;-85
2022/06/09 10:40:32;;;;;;;2.80;1.30;;;18.40;96.80;;;;;;4942516;28;21199;-85
2022/06/09 10:43:26;;;;;;;2.17;1.23;;;18.30;96.00;;;;;;4938090;28;20493;-83
2022/06/09 10:46:11;;;;;;;3.10;1.33;;;18.10;96.50;;;;;;4946770;28;20179;-84
2022/06/09 10:55:18;;;;;;;2.20;1.20;;;17.60;99.90;;;;;;4938675;28;21029;-82
2022/06/09 10:58:01;;;;;;;1.73;1.17;;;17.30;99.90;;;;;;4943812;28;20484;-83
2022/06/09 11:00:31;;;;;;;2.60;1.60;;;17.40;99.90;;;;;;4937027;28;20434;-82
2022/06/09 11:03:00;;;;;;;1.80;1.00;;;17.60;99.90;;;;;;4931130;28;20529;-83
2022/06/09 11:06:03;;;;;;;1.60;0.90;;;17.70;99.90;;;;;;4933207;28;20798;-84
2022/06/09 11:08:59;;;;;;;3.53;1.37;;;18.20;99.90;;;;;;4943468;28;21125;-83
2022/06/09 11:11:37;;;;;;;2.27;1.13;;;18.90;99.90;;;;;;4947161;28;20442;-83
2022/06/09 11:14:15;;;;;;;2.20;1.07;;;19.90;99.90;;;;;;4942529;28;20464;-83
2022/06/09 11:17:07;;;;;;;2.80;1.13;;;20.20;97.30;;;;;;4931932;28;20525;-83
2022/06/09 11:20:00;;;;;;;1.60;0.90;;;19.90;97.40;;;;;;4928773;28;20446;-83
2022/06/09 11:22:52;;;;;;;3.60;1.13;;;19.90;95.80;;;;;;4943817;28;20470;-84
2022/06/09 11:25:29;;;;;;;3.60;1.07;;;19.40;96.20;;;;;;4942318;28;20450;-83
2022/06/09 11:28:00;;;;;;;3.77;1.40;;;19.00;97.50;;;;;;4932952;28;21048;-84
2022/06/09 11:30:38;;;;;;;3.00;1.57;;;19.10;99.30;;;;;;4954905;28;20442;-84
2022/06/09 11:33:34;;;;;;;1.40;1.00;;;19.60;98.40;;;;;;4943106;28;21009;-83
2022/06/09 11:36:09;;;;;;;1.87;1.13;;;20.30;98.00;;;;;;4936650;28;20444;-84
2022/06/09 11:38:42;;;;;;;4.70;1.20;;;21.40;94.10;;;;;;4952569;28;20464;-84
2022/06/09 11:41:39;;;;;;;2.20;1.00;;;21.80;92.70;;;;;;4941461;28;20572;-84
2022/06/09 11:44:22;;;;;;;2.20;1.27;;;21.40;92.40;;;;;;4949834;28;20776;-84
2022/06/09 11:46:51;;;;;;;1.10;1.00;;;20.40;94.60;;;;;;4944743;28;21157;-84
2022/06/09 11:49:45;;;;;;;2.20;1.00;;;19.50;95.30;;;;;;4944113;28;20959;-84
2022/06/09 11:52:18;;;;;;;1.37;0.90;;;18.90;96.30;;;;;;4939021;28;20447;-84
2022/06/09 11:54:50;;;;;;;3.63;1.23;;;18.80;96.40;;;;;;4945191;28;20445;-84
2022/06/09 11:57:16;;;;;;;1.83;1.17;;;18.40;96.40;;;;;;4955821;28;20453;-84
2022/06/09 11:59:52;;;;;;;4.20;1.13;;;18.40;97.10;;;;;;4951782;28;20796;-83
2022/06/09 12:02:42;;;;;;;4.90;1.30;;;18.60;98.40;;;;;;4942782;28;20215;-84
2022/06/09 12:05:36;;;;;;;2.60;1.10;;;19.00;97.50;;;;;;4935170;28;20452;-83
2022/06/09 12:08:19;;;;;;;2.30;1.17;;;19.50;97.90;;;;;;4934303;28;21093;-84
2022/06/09 12:10:57;;;;;;;3.33;0.93;;;19.60;96.10;;;;;;4941269;28;21263;-84
2022/06/09 12:13:35;;;;;;;4.07;1.10;;;19.50;96.30;;;;;;4950353;28;21079;-84
2022/06/09 12:16:21;;;;;;;2.77;0.97;;;19.00;93.60;;;;;;4951195;28;20445;-85
2022/06/09 12:19:01;;;;;;;1.00;0.90;;;19.00;94.00;;;;;;4939693;28;20534;-84
2022/06/09 12:21:31;;;;;;;2.67;1.13;;;19.70;92.80;;;;;;4943774;28;20470;-85
2022/06/09 12:24:01;;;;;;;2.70;1.10;;;20.50;92.20;;;;;;4947207;28;21113;-85
2022/06/09 12:26:47;;;;;;;1.97;1.20;;;20.40;92.10;;;;;;4940547;28;20544;-85
2022/06/09 12:29:34;;;;;;;3.70;1.20;;;19.90;92.40;;;;;;4960703;28;20442;-85
2022/06/09 12:32:08;;;;;;;2.10;1.47;;;19.40;93.20;;;;;;4935982;28;20445;-84
2022/06/09 12:34:46;;;;;;;2.70;1.50;;;19.60;95.40;;;;;;4943611;28;20445;-84
2022/06/09 12:37:28;;;;;;;4.13;1.40;;;20.30;93.10;;;;;;4950122;28;20471;-85
2022/06/09 12:40:12;;;;;;;1.53;1.23;;;19.90;91.90;;;;;;4948746;28;20441;-84
2022/06/09 12:42:46;;;;;;;2.27;1.70;;;19.50;92.00;;;;;;4953443;28;20566;-84
2022/06/09 12:45:24;;;;;;;2.83;1.07;;;19.20;92.60;;;;;;4944579;28;20488;-84
2022/06/09 12:47:57;;;;;;;1.13;1.03;;;19.20;92.20;;;;;;4946291;28;20507;-84
2022/06/09 12:50:45;;;;;;;3.90;1.50;;;19.20;92.40;;;;;;4946629;28;20445;-84
2022/06/09 12:53:21;;;;;;;2.07;1.43;;;19.10;92.80;;;;;;4943750;28;20449;-85
2022/06/09 12:55:53;;;;;;;2.47;1.50;;;19.00;93.70;;;;;;4942468;28;20445;-84
2022/06/09 12:58:20;;;;;;;1.60;1.23;;;19.00;94.80;;;;;;4944962;28;20461;-84
2022/06/09 13:00:59;;;;;;;1.20;1.10;;;19.20;95.30;;;;;;4947444;28;20450;-84
2022/06/09 13:03:29;;;;;;;1.77;0.87;;;19.30;92.60;;;;;;4941780;28;20485;-84
2022/06/09 13:05:56;;;;;;;1.50;1.00;;;19.40;91.30;;;;;;4944488;28;20460;-84
2022/06/09 13:08:25;;;;;;;3.80;1.10;;;19.60;91.50;;;;;;4935884;28;20454;-84
2022/06/09 13:11:18;;;;;;;2.40;1.13;;;19.50;90.50;;;;;;4956806;28;20438;-85
2022/06/09 13:13:44;;;;;;;3.97;1.40;;;19.40;90.70;;;;;;4947999;28;20434;-83
2022/06/09 13:16:22;;;;;;;3.33;1.20;;;19.20;93.00;;;;;;4952232;28;21264;-84
2022/06/09 13:18:55;;;;;;;1.37;0.87;;;19.40;93.60;;;;;;4936336;28;20453;-84
2022/06/09 13:21:23;;;;;;;2.33;0.97;;;19.30;91.30;;;;;;4963397;28;20438;-84
2022/06/09 13:23:56;;;;;;;1.50;0.90;;;20.00;90.60;;;;;;4969070;28;20445;-84
2022/06/09 13:26:32;;;;;;;3.03;1.00;;;20.70;90.50;;;;;;4963255;28;21059;-85
2022/06/09 13:29:06;;;;;;;1.90;0.90;;;21.70;86.30;;;;;;4953871;28;20445;-85
2022/06/09 13:31:36;;;;;;;2.17;1.17;;;21.50;83.50;;;;;;4946324;28;20431;-84
2022/06/09 13:34:59;;;;;;;1.73;0.87;;;20.70;82.00;;;;;;4949587;28;20672;-84
2022/06/09 13:37:44;;;;;;;2.27;1.00;;;20.10;85.10;;;;;;4947366;28;20836;-84